Station: ERNABELLA

  Atmospheric Gas Attenuation - ITU Rec 676-11   --------------- db/100km ---------------
Date Time Temp RH % AH g/m3 Dew Point Wind Direction Speed kph Gust kph Barometer mB Rainfall Since 9am 24GHz 47GHz 76GHz 122GHz 134GHz 241GHz
21 18:30 20.2 13 2.27 -9.1 20 26 1013.5 0 6.1 15.8 16.2 41.4 22.7 73.2
21 18:20 20.7 12 2.16 -9.7 22 26 1015.9 0 5.8 15.6 15.9 40.4 21.6 69.3
21 18:10 21.1 12 2.21 -9.4 22 26 1015.8 0 5.9 15.6 15.9 40.6 22.0 70.6
21 18:00 21.3 12 2.24 -9.2 26 35 1013 0 6.0 15.5 15.9 40.6 22.1 71.2
21 17:50 21.5 12 2.26 -9.1 26 32 1015.6 0 6.0 15.6 16.0 40.8 22.3 71.9
21 17:40 21.7 12 2.29 -8.9 28 32 1015.5 0 6.1 15.6 16.0 40.9 22.5 72.7
21 17:30 21.9 12 2.32 -8.7 20 32 1012.9 0 6.1 15.5 16.0 40.9 22.7 73.3
21 17:20 21.9 13 2.51 -7.7 17 19 1015.3 0 6.5 15.8 16.6 42.4 24.5 79.7
21 17:10 22.1 12 2.34 -8.6 28 33 1015.1 0 6.2 15.6 16.1 41.0 22.9 74.0
21 17:00 22.4 11 2.18 -9.5 24 35 1012.4 0 5.8 15.3 15.5 39.6 21.3 68.3
21 16:50 22.4 12 2.38 -8.4 28 32 1014.9 0 6.3 15.6 16.1 41.2 23.2 75.0
21 16:40 22.6 12 2.41 -8.2 24 30 1014.8 0 6.3 15.6 16.2 41.3 23.4 75.8
21 16:30 22.6 12 2.41 -8.2 24 37 1012.2 0 6.3 15.5 16.1 41.2 23.3 75.6
21 16:20 22.9 11 2.25 -9.1 35 41 1014.7 0 6.0 15.3 15.7 40.0 21.8 70.3
21 16:10 22.7 11 2.22 -9.2 28 32 1014.6 0 5.9 15.3 15.6 39.8 21.6 69.5
21 16:00 22.1 12 2.34 -8.6 19 32 1012 0 6.2 15.5 16.0 40.9 22.8 73.7
21 15:50 22.1 12 2.34 -8.6 30 35 1014.8 0 6.2 15.6 16.1 41.0 22.9 73.9
21 15:40 22.5 11 2.2 -9.4 26 33 1014.7 0 5.9 15.3 15.6 39.8 21.5 69.1
21 15:30 22.9 11 2.25 -9.1 22 41 1012.2 0 6.0 15.3 15.6 39.8 21.8 70.2
21 15:20 22.8 11 2.24 -9.2 28 35 1014.9 0 6.0 15.4 15.7 40.0 21.8 70.1
21 15:10 22.6 11 2.21 -9.3 22 30 1014.9 0 5.9 15.4 15.6 39.8 21.6 69.3
21 15:00 22.4 11 2.18 -9.5 17 35 1012.4 0 5.8 15.3 15.5 39.6 21.3 68.3
21 14:50 22.7 11 2.22 -9.2 20 24 1015.1 0 5.9 15.4 15.6 39.9 21.6 69.6
21 14:40 22.1 12 2.34 -8.6 17 20 1015.2 0 6.2 15.6 16.1 41.1 22.9 74.0
21 14:30 22.1 12 2.34 -8.6 20 33 1012.8 0 6.2 15.5 16.0 40.9 22.8 73.8
21 14:20 21.6 12 2.28 -9 15 20 1015.5 0 6.1 15.6 16.0 40.9 22.5 72.4
21 14:10 21.6 13 2.47 -8 11 13 1015.5 0 6.5 15.8 16.5 42.3 24.2 78.7
21 14:00 21.8 13 2.49 -7.8 22 33 1013.1 0 6.5 15.7 16.5 42.2 24.3 79.0
21 13:50 21.5 13 2.45 -8 22 26 1015.6 0 6.4 15.8 16.5 42.2 24.1 78.1
21 13:40 20.8 14 2.53 -7.6 13 26 1015.7 0 6.6 16.0 16.9 43.2 25.0 81.4
21 13:30 20.9 14 2.55 -7.6 13 30 1013.2 0 6.6 16.0 16.8 43.1 25.1 81.8
21 13:20 20.2 15 2.62 -7.2 7 7 1016.1 0 6.8 16.2 17.3 44.2 26.1 85.1
21 13:10 20.3 15 2.64 -7.1 22 26 1016.2 0 6.8 16.3 17.3 44.3 26.2 85.6
21 13:00 19.7 15 2.55 -7.6 20 33 1013.7 0 6.7 16.2 17.1 43.8 25.5 83.0
21 12:50 20.4 15 2.65 -7.1 26 32 1016.4 0 6.9 16.3 17.3 44.3 26.3 85.9
21 12:40 19.6 15 2.53 -7.7 17 20 1016.5 0 6.6 16.3 17.1 43.8 25.4 82.6
21 12:30 19.2 15 2.47 -8 15 24 1014.2 0 6.5 16.2 17.0 43.4 24.9 80.8
21 12:20 19.5 15 2.52 -7.8 24 28 1016.7 0 6.6 16.3 17.1 43.8 25.4 82.4
21 12:10 19.2 17 2.8 -6.4 13 17 1017 0 7.2 16.7 18.0 46.2 28.2 92.3
21 12:00 18.9 16 2.59 -7.4 20 32 1014.6 0 6.8 16.4 17.4 44.6 26.2 85.2
21 11:50 19 17 2.77 -6.6 17 19 1017.2 0 7.1 16.7 18.0 46.1 28.0 91.5
21 11:40 18.8 16 2.58 -7.5 15 17 1017.2 0 6.7 16.5 17.5 44.7 26.2 85.2
21 11:30 18.1 19 2.94 -5.9 22 32 1014.8 0 7.5 17.0 18.6 47.8 29.9 98.2
21 11:20 18.6 18 2.86 -6.2 19 20 1017.6 0 7.3 16.8 18.3 47.0 29.0 95.1
21 11:10 18.2 18 2.8 -6.5 24 30 1017.7 0 7.2 16.9 18.2 46.8 28.5 93.5
21 11:00 18.1 18 2.78 -6.6 20 46 1015.2 0 7.2 16.8 18.1 46.5 28.3 92.7
21 10:50 18.7 19 3.04 -5.4 20 24 1017.8 0 7.7 17.1 18.9 48.4 30.7 101.3
21 10:40 17.5 19 2.83 -6.3 20 24 1017.9 0 7.3 17.0 18.5 47.4 29.1 95.3
21 10:30 17.2 20 2.93 -5.9 24 33 1015.4 0 7.5 17.1 18.8 48.2 30.1 99.0
21 10:20 17 20 2.89 -6.1 28 32 1017.9 0 7.4 17.2 18.8 48.2 29.9 98.0
21 10:10 17 21 3.04 -5.5 26 33 1017.9 0 7.7 17.4 19.2 49.4 31.4 103.3
21 10:00 17.6 20 3 -5.6 22 32 1015.4 0 7.6 17.1 18.9 48.6 30.7 101.0
21 09:50 17.5 20 2.98 -5.7 24 30 1017.9 0 7.6 17.2 18.9 48.6 30.6 100.6
21 09:40 16.6 21 2.97 -5.8 19 20 1017.8 0 7.6 17.3 19.1 49.1 30.8 101.3
21 09:30 16.6 20 2.83 -6.4 24 33 1015.4 0 7.3 17.1 18.6 47.8 29.3 96.1
21 09:20 16.2 20 2.76 -6.8 20 24 1017.9 0 7.2 17.2 18.6 47.6 28.8 94.3
21 09:10 16 21 2.86 -6.3 20 22 1017.8 0 7.4 17.3 18.9 48.5 29.9 98.1
21 09:00 16 20 2.72 -6.9 22 33 1015.3 0 7.1 17.1 18.4 47.2 28.4 92.8
21 08:50 15.9 20 2.71 -7 20 26 1017.7 0 7.1 17.1 18.5 47.3 28.4 92.8
21 08:40 15.8 21 2.83 -6.5 19 22 1017.6 0 7.3 17.3 18.9 48.4 29.7 97.2
21 08:30 15.5 21 2.78 -6.7 20 32 1014.9 0 7.2 17.2 18.7 48.0 29.2 95.5
21 08:20 15.6 21 2.79 -6.6 19 20 1017.3 0 7.3 17.3 18.8 48.2 29.3 96.0
21 08:10 15.2 21 2.73 -7 17 19 1017.3 0 7.1 17.3 18.7 47.9 28.9 94.3
21 08:00 14.9 22 2.8 -6.6 19 30 1014.6 0 7.3 17.3 18.9 48.5 29.6 96.9
21 07:50 14.4 24 2.97 -5.9 13 17 1017 0 7.7 17.7 19.6 50.3 31.6 103.9
21 07:40 14.2 23 2.81 -6.6 19 22 1016.7 0 7.3 17.6 19.1 49.1 30.0 98.3
21 07:30 13.9 26 3.12 -5.3 19 24 1014.1 0 8.0 17.9 20.1 51.7 33.3 109.8
21 07:20 13.8 26 3.1 -5.3 17 19 1016.5 0 7.9 18.0 20.1 51.8 33.2 109.4
21 07:10 13.6 26 3.06 -5.5 17 20 1016.3 0 7.9 18.0 20.0 51.6 32.9 108.2
21 07:00 13.7 25 2.96 -5.9 17 26 1013.6 0 7.6 17.7 19.6 50.5 31.7 104.1
21 06:50 13.5 25 2.92 -6.1 19 24 1016.1 0 7.6 17.8 19.6 50.4 31.4 103.1
21 06:40 13.6 25 2.94 -6 24 30 1015.8 0 7.6 17.8 19.6 50.5 31.6 103.7
21 06:30 13.8 25 2.98 -5.9 33 44 1013 0 7.7 17.7 19.6 50.5 31.8 104.6
21 06:20 13.7 25 2.96 -5.9 32 33 1015.3 0 7.7 17.8 19.7 50.6 31.7 104.2
21 06:10 13.9 25 3 -5.8 33 46 1015.2 0 7.7 17.8 19.7 50.8 32.1 105.5
21 06:00 14.1 24 2.91 -6.1 33 43 1012.5 0 7.5 17.6 19.3 49.7 31.0 101.6
21 05:50 14.3 24 2.95 -6 32 37 1015 0 7.6 17.7 19.5 50.1 31.4 103.1
21 05:40 14.2 24 2.93 -6.1 26 28 1014.9 0 7.6 17.6 19.4 50.0 31.2 102.5
21 05:30 14.5 23 2.86 -6.4 28 39 1012.2 0 7.4 17.4 19.1 49.1 30.3 99.3
21 05:20 14.6 23 2.88 -6.3 30 33 1014.6 0 7.5 17.5 19.2 49.3 30.5 100.1
21 05:10 14.6 23 2.88 -6.3 26 32 1014.3 0 7.5 17.5 19.2 49.3 30.5 100.1
21 04:50 14.9 22 2.8 -6.6 32 41 1013.8 0 7.3 17.3 18.9 48.4 29.6 96.8
21 04:40 15.1 22 2.84 -6.4 37 44 1013.7 0 7.4 17.3 18.9 48.6 29.9 98.0
21 04:30 14.9 23 2.93 -6 24 33 1011.1 0 7.6 17.4 19.2 49.3 30.8 101.3
21 04:20 15.1 23 2.97 -5.9 26 33 1013.6 0 7.6 17.5 19.3 49.7 31.2 102.7
21 04:10 15.3 23 3 -5.7 30 35 1013.5 0 7.7 17.5 19.4 49.8 31.5 103.6
21 04:00 15.5 22 2.91 -6.1 32 46 1010.8 0 7.5 17.3 19.0 48.8 30.4 99.8
21 03:50 15.6 23 3.06 -5.4 33 39 1013.3 0 7.8 17.5 19.5 50.1 32.0 105.4
21 03:40 15.6 24 3.19 -4.9 22 28 1013.3 0 8.1 17.7 19.9 51.2 33.3 110.1
21 03:30 15.9 24 3.25 -4.6 28 43 1010.7 0 8.2 17.6 19.9 51.4 33.7 111.6
21 03:20 16 27 3.68 -3 28 35 1013.3 0 9.1 18.2 21.3 55.1 38.2 127.5
21 03:10 16.3 25 3.47 -3.7 32 39 1013.2 0 8.7 17.9 20.6 53.1 35.9 119.4
21 03:00 16.4 26 3.63 -3.1 28 41 1010.6 0 9.0 18.0 21.0 54.2 37.4 124.8
21 02:50 16.5 26 3.65 -3 30 33 1013.1 0 9.0 18.1 21.1 54.5 37.7 125.7
21 02:40 16.7 26 3.69 -2.9 32 37 1013.2 0 9.1 18.1 21.2 54.7 38.0 126.8
21 02:30 17 26 3.76 -2.6 30 43 1010.5 0 9.2 18.0 21.2 54.9 38.5 128.6
21 02:20 17.1 26 3.78 -2.5 30 33 1013.1 0 9.3 18.1 21.4 55.2 38.8 129.5
21 02:10 17.3 26 3.83 -2.4 30 35 1013.2 0 9.4 18.2 21.5 55.5 39.2 131.1
21 02:00 17.5 26 3.88 -2.2 28 37 1010.5 0 9.5 18.1 21.5 55.6 39.5 132.3
21 01:50 17.8 25 3.79 -2.5 33 41 1013 0 9.3 18.0 21.2 54.8 38.5 128.8

Last Refresh: 21-Sep-2020 18:47:01

Most of the information presented on this site is sourced from the Bureau of Meteorology.  Copyright in all material sourced from the Bureau of Meteorology resides with the Commonwealth of Australia.